Terminal Aerodrome Forecast
Issued by NWS Boise, ID

Home | Current Version | Previous Version | Text Only | Print | Product List | Glossary On
Versions: 1 2 3 4 5 6 7 8 9 10 11 12 13 14 15 16 17 18 19 20 21 22 23 24 25 26 27 28 29 30 31 32 33 34 35 36 37 38 39 40 41 42 43 44 45 46
000
FTUS45 KBOI 221208 AAA
TAFBOI
TAF AMD
KBOI 221208Z 2212/2312 32006KT 2SM -RA BR FEW003 OVC040
      TEMPO 2212/2214 1SM -RA BR OVC001
     FM221400 32007KT P6SM VCSH FEW020 OVC070
     FM221900 31015G25KT P6SM BKN080
     FM230000 32008KT P6SM SCT100=

USA.gov is the U.S. government's official web portal to all federal, state and local government web resources and services.